createdAt,value
2019-02-28T00:07:45.817Z,67.97
2019-02-28T00:17:45.917Z,67.39
2019-02-28T00:27:45.955Z,65.74
2019-02-28T00:37:45.905Z,67.20
2019-02-28T00:47:47.517Z,67.87
2019-02-28T00:57:45.874Z,67.59
2019-02-28T01:07:48.064Z,68.21
2019-02-28T01:17:45.901Z,69.80
2019-02-28T01:27:46.796Z,70.18
2019-02-28T01:37:45.963Z,70.40
2019-02-28T01:47:51.780Z,70.63
2019-02-28T01:57:45.865Z,71.53
2019-02-28T02:07:45.926Z,71.99
2019-02-28T02:17:45.989Z,72.39
2019-02-28T02:27:45.904Z,73.16
2019-02-28T02:37:45.968Z,73.49
2019-02-28T02:47:45.883Z,74.11
2019-02-28T02:57:50.489Z,74.05
2019-02-28T03:07:45.932Z,74.01
2019-02-28T03:17:47.106Z,73.58
2019-02-28T03:27:45.958Z,74.62
2019-02-28T03:37:45.883Z,74.13
2019-02-28T03:47:45.869Z,73.04
2019-02-28T03:57:45.821Z,73.82
2019-02-28T04:07:52.763Z,73.62
2019-02-28T04:17:45.881Z,73.47
2019-02-28T04:27:45.800Z,72.95
2019-02-28T04:37:47.193Z,73.19
2019-02-28T04:47:45.839Z,73.07
2019-02-28T04:57:45.811Z,73.36
2019-02-28T05:07:46.040Z,73.16
2019-02-28T05:17:45.867Z,73.06
2019-02-28T05:27:45.892Z,73.19
2019-02-28T05:37:48.315Z,72.38
2019-02-28T05:47:47.195Z,72.43
2019-02-28T05:57:45.865Z,72.65
2019-02-28T06:07:45.859Z,74.26
2019-02-28T06:17:45.903Z,74.82
2019-02-28T06:27:50.453Z,75.91
2019-02-28T06:37:46.006Z,77.82
2019-02-28T06:47:48.622Z,76.50
2019-02-28T06:57:45.851Z,76.48
2019-02-28T07:07:49.975Z,76.34
2019-02-28T07:17:48.114Z,75.83
2019-02-28T07:27:46.832Z,72.20
2019-02-28T07:37:45.945Z,69.44
2019-02-28T07:47:51.703Z,68.24
2019-02-28T07:57:51.261Z,65.92
2019-02-28T08:07:50.295Z,66.07
2019-02-28T08:17:46.236Z,67.07
2019-02-28T08:27:45.923Z,68.10
2019-02-28T08:37:45.974Z,67.86
2019-02-28T08:47:45.975Z,67.06
2019-02-28T08:57:54.413Z,66.05
2019-02-28T09:07:50.915Z,66.26
2019-02-28T09:17:45.937Z,64.85
2019-02-28T09:27:45.874Z,64.62
2019-02-28T09:37:46.731Z,65.28
2019-02-28T09:47:45.981Z,64.81
2019-02-28T09:57:45.930Z,66.40
2019-02-28T10:07:45.947Z,65.95
2019-02-28T10:17:45.881Z,65.44
2019-02-28T10:27:45.856Z,64.77
2019-02-28T10:37:45.943Z,64.89
2019-02-28T10:47:49.394Z,63.49
2019-02-28T10:57:45.972Z,62.69
2019-02-28T11:07:46.830Z,61.04
2019-02-28T11:17:45.902Z,60.34
2019-02-28T11:27:47.003Z,62.00
2019-02-28T11:37:46.185Z,69.09
2019-02-28T11:47:45.841Z,75.68
2019-02-28T11:57:45.859Z,83.07
2019-02-28T12:07:47.489Z,85.26
2019-02-28T12:17:46.969Z,87.38
2019-02-28T12:27:46.498Z,87.30
2019-02-28T12:37:46.405Z,84.95
2019-02-28T12:47:46.521Z,83.93
2019-02-28T12:57:45.939Z,82.50
2019-02-28T13:07:48.506Z,82.92
2019-02-28T13:17:45.980Z,82.50
2019-02-28T13:27:46.161Z,82.32
2019-02-28T13:37:49.324Z,80.36
2019-02-28T13:47:47.643Z,79.03
2019-02-28T13:57:47.007Z,78.60
2019-02-28T14:07:47.036Z,78.78
2019-02-28T14:17:47.595Z,77.47
2019-02-28T14:27:45.937Z,77.55
2019-02-28T14:37:45.942Z,76.74
2019-02-28T14:47:53.944Z,76.66
2019-02-28T14:57:48.802Z,76.36
2019-02-28T15:07:45.874Z,77.86
2019-02-28T15:17:45.970Z,78.04
2019-02-28T15:27:45.826Z,81.14
2019-02-28T15:37:46.668Z,82.83
2019-02-28T15:47:45.867Z,82.99
2019-02-28T15:57:45.839Z,83.54
2019-02-28T16:07:46.877Z,83.69
2019-02-28T16:17:46.086Z,83.56
2019-02-28T16:27:46.055Z,83.89
2019-02-28T16:37:45.988Z,82.92
2019-02-28T16:47:45.853Z,82.13
2019-02-28T16:57:47.033Z,82.72
2019-02-28T17:07:45.864Z,82.77
2019-02-28T17:17:47.084Z,82.90
2019-02-28T17:27:46.046Z,82.48
2019-02-28T17:37:45.992Z,82.12
2019-02-28T17:47:45.870Z,82.82
2019-02-28T17:57:48.807Z,85.23
2019-02-28T18:07:45.921Z,86.96
2019-02-28T18:17:45.747Z,86.49
2019-02-28T18:27:46.772Z,87.38
2019-02-28T18:37:45.799Z,88.12
2019-02-28T18:47:45.778Z,87.94
2019-02-28T18:57:46.592Z,87.90
2019-02-28T19:07:45.832Z,87.34
2019-02-28T19:17:45.780Z,85.87
2019-02-28T19:27:45.820Z,84.59
2019-02-28T19:37:46.646Z,84.80
2019-02-28T19:47:47.491Z,89.00
2019-02-28T19:57:45.796Z,93.44
2019-02-28T20:07:45.813Z,94.80
2019-02-28T20:17:45.662Z,96.03
2019-02-28T20:27:46.801Z,96.31
2019-02-28T20:37:46.047Z,96.59
2019-02-28T20:47:45.798Z,94.46
2019-02-28T20:57:45.998Z,92.54
2019-02-28T21:07:45.819Z,90.89
2019-02-28T21:17:45.800Z,90.97
2019-02-28T21:27:45.806Z,91.06
2019-02-28T21:37:45.778Z,89.77
2019-02-28T21:47:45.878Z,89.71
2019-02-28T21:57:45.885Z,90.22
2019-02-28T22:07:45.761Z,90.53
2019-02-28T22:17:45.800Z,93.41
2019-02-28T22:27:45.969Z,93.60
2019-02-28T22:37:45.879Z,94.90
2019-02-28T22:47:46.313Z,94.58
2019-02-28T22:57:45.745Z,92.90
2019-02-28T23:07:45.764Z,92.46
2019-02-28T23:17:45.721Z,92.10
2019-02-28T23:27:45.749Z,91.50
2019-02-28T23:37:45.801Z,90.90
2019-02-28T23:47:53.116Z,91.28
2019-02-28T23:57:45.743Z,91.05
